»·PEaware :: UAL872 KSBP-KSJC

UAL872 :: KSBP-KSJC

FLIGHT INFORMATION

Flight Status: Arrived
Operator:
United Airlines
More flights by this operator :: More flights under this callsign
Pilot: Sergei F. (8485)
Aircraft: BOEING 737-600
(B736)
More flights by this aircraft type
Origin: KSBP San Luis Co Regl
United States
Destination: KSJC Mineta San Jose Intl
United States
More flights between these airports :: More routes between these airports
Route: CREPE3 PRB TROXX SILCN6
File this flight plan on PilotEdge
Remarks:
Altitude:
(Current/Filed)
22,000ft
Speed:
(Current/Filed)
429kts
Departed: 18-Nov-23 07:01 PM
Arrived: 18-Nov-23 07:37 PM
Distance/Time
Traveled:
142nm/0:36
Distance/Time
To Go:
Arrived

Flight Plot

Page will automatically refresh every two minutes.

Flight plan parsing failed; only flown route is shown


Map Options




Map Legend


Flown Route
Filed Route
Departure Airport
Arrival Airport
Navaid (VOR, NDB)
Fix

Horizontal Profiles

Position Reports

Time Latitude Longitude Heading Altitude Ground
Speed
18-Nov-23 18:20 35.238347 -120.637483 301 156ft 0kts
18-Nov-23 18:21 35.238347 -120.637483 301 156ft 0kts
18-Nov-23 18:22 35.238347 -120.637483 301 156ft 0kts
18-Nov-23 18:23 35.238347 -120.637483 301 156ft 0kts
18-Nov-23 18:24 35.238347 -120.637483 301 175ft 0kts
18-Nov-23 18:25 35.238347 -120.637483 301 175ft 0kts
18-Nov-23 18:26 35.238347 -120.637483 301 175ft 0kts
18-Nov-23 18:27 35.238347 -120.637483 301 175ft 0kts
18-Nov-23 18:28 35.238347 -120.637483 301 175ft 0kts
18-Nov-23 18:29 35.238347 -120.637483 301 175ft 0kts
18-Nov-23 18:30 35.238347 -120.637483 301 175ft 0kts
18-Nov-23 18:31 35.238347 -120.637483 301 175ft 0kts
18-Nov-23 18:32 35.238347 -120.637483 301 175ft 0kts
18-Nov-23 18:33 35.238347 -120.637483 301 175ft 0kts
18-Nov-23 18:34 35.238347 -120.637483 301 175ft 0kts
18-Nov-23 18:35 35.238347 -120.637483 301 175ft 0kts
18-Nov-23 18:36 35.238347 -120.637483 301 175ft 0kts
18-Nov-23 18:37 35.238347 -120.637483 301 175ft 0kts
18-Nov-23 18:38 35.238347 -120.637483 301 175ft 0kts
18-Nov-23 18:39 35.238347 -120.637483 301 175ft 0kts
18-Nov-23 18:40 35.238347 -120.637483 301 184ft 0kts
18-Nov-23 18:41 35.238347 -120.637483 301 184ft 0kts
18-Nov-23 18:42 35.238347 -120.637483 301 184ft 0kts
18-Nov-23 18:43 35.238347 -120.637483 301 184ft 0kts
18-Nov-23 18:44 35.238347 -120.637483 301 184ft 0kts
18-Nov-23 18:45 35.238347 -120.637483 301 184ft 0kts
18-Nov-23 18:46 35.238347 -120.637483 301 184ft 0kts
18-Nov-23 18:47 35.238256 -120.637298 301 184ft 1kts
18-Nov-23 18:48 35.237835 -120.637015 7 184ft 1kts
18-Nov-23 18:49 35.237420 -120.637404 35 184ft 2kts
18-Nov-23 18:50 35.236962 -120.637789 40 184ft 2kts
18-Nov-23 18:51 35.236955 -120.638411 127 184ft 0kts
18-Nov-23 18:52 35.236955 -120.638411 127 184ft 0kts
18-Nov-23 18:53 35.236955 -120.638411 127 184ft 0kts
18-Nov-23 18:54 35.236955 -120.638411 127 184ft 0kts
18-Nov-23 18:55 35.236954 -120.638410 127 184ft 0kts
18-Nov-23 18:56 35.235631 -120.636125 125 184ft 12kts
18-Nov-23 18:57 35.233759 -120.632864 125 184ft 7kts
18-Nov-23 18:58 35.232966 -120.632673 212 184ft 4kts
18-Nov-23 18:59 35.232794 -120.633104 303 184ft 0kts
18-Nov-23 19:00 35.249773 -120.663068 303 945ft 154kts
18-Nov-23 19:01 35.278261 -120.714255 305 2441ft 195kts
18-Nov-23 19:03 35.309477 -120.768894 304 3904ft 198kts
18-Nov-23 19:04 35.342654 -120.826827 304 4908ft 233kts
18-Nov-23 19:05 35.403382 -120.835652 27 7638ft 280kts
18-Nov-23 19:06 35.469086 -120.784255 28 7968ft 281kts
18-Nov-23 19:07 35.534993 -120.733265 28 7991ft 281kts
18-Nov-23 19:08 35.601353 -120.682071 28 7991ft 281kts
18-Nov-23 19:09 35.669842 -120.638457 355 7988ft 270kts
18-Nov-23 19:10 35.731364 -120.684141 318 8005ft 262kts
18-Nov-23 19:11 35.788311 -120.741687 318 10150ft 263kts
18-Nov-23 19:12 35.848447 -120.801814 318 13126ft 303kts
18-Nov-23 19:13 35.918830 -120.872032 317 15636ft 342kts
18-Nov-23 19:14 35.992561 -120.945645 316 18179ft 342kts
18-Nov-23 19:15 36.068075 -121.018460 318 20386ft 354kts
18-Nov-23 19:16 36.146944 -121.093175 318 21795ft 355kts
18-Nov-23 19:17 36.225222 -121.167820 318 22116ft 355kts
18-Nov-23 19:18 36.303304 -121.242484 318 22109ft 339kts
18-Nov-23 19:19 36.373734 -121.310053 318 21835ft 320kts
18-Nov-23 19:20 36.442598 -121.376443 317 19981ft 307kts
18-Nov-23 19:21 36.512182 -121.437445 332 17692ft 319kts
18-Nov-23 19:22 36.597896 -121.472830 336 15351ft 321kts
18-Nov-23 19:23 36.681771 -121.508001 337 13288ft 315kts
18-Nov-23 19:24 36.763984 -121.542831 337 11123ft 313kts
18-Nov-23 19:25 36.842583 -121.576185 337 10170ft 276kts
18-Nov-23 19:26 36.912205 -121.605865 336 9104ft 258kts
18-Nov-23 19:27 36.979608 -121.634501 337 7813ft 253kts
18-Nov-23 19:28 37.045962 -121.662688 338 6610ft 250kts
18-Nov-23 19:29 37.111342 -121.690511 338 5371ft 246kts
18-Nov-23 19:30 37.172010 -121.720413 318 4550ft 224kts
18-Nov-23 19:31 37.216832 -121.769770 316 3693ft 202kts
18-Nov-23 19:32 37.254585 -121.811228 316 2707ft 157kts
18-Nov-23 19:33 37.284414 -121.843993 315 1942ft 133kts
18-Nov-23 19:33 37.306606 -121.868337 317 1392ft 128kts
18-Nov-23 19:34 37.333956 -121.898337 317 667ft 129kts
18-Nov-23 19:35 37.359134 -121.925904 317 69ft 122kts
18-Nov-23 19:37 37.371250 -121.938270 19 59ft 13kts
18-Nov-23 19:38 37.371608 -121.937992 47 62ft 0kts
18-Nov-23 19:38 37.372151 -121.937217 49 62ft 4kts
18-Nov-23 19:39 37.372742 -121.935136 137 60ft 7kts
18-Nov-23 19:40 37.372365 -121.934714 139 57ft 7kts
18-Nov-23 19:43 37.370459 -121.932071 51 60ft 2kts
18-Nov-23 19:43 37.370603 -121.931846 50 60ft 0kts
18-Nov-23 19:44 37.370614 -121.931830 49 56ft 0kts
18-Nov-23 19:45 37.370614 -121.931830 49 56ft 0kts
18-Nov-23 19:46 37.370614 -121.931830 49 56ft 0kts
18-Nov-23 19:47 37.370614 -121.931830 49 56ft 0kts
18-Nov-23 19:48 37.370614 -121.931830 49 56ft 0kts
18-Nov-23 19:49 37.370614 -121.931830 49 56ft 0kts
18-Nov-23 19:50 37.370614 -121.931830 49 56ft 0kts

Navigation Log

Ident Type
Flight plan parsing failed, navigation log unavailable